sensor_id;sensor_type;location;lat;lon;timestamp;pressure;altitude;pressure_sealevel;temperature;humidity
69570;BME280;56781;42.292;23.146;2022-12-07T00:01:23;95548.75;;;3.98;98.80
69570;BME280;56781;42.292;23.146;2022-12-07T00:03:52;95526.78;;;3.98;98.67
69570;BME280;56781;42.292;23.146;2022-12-07T00:06:20;95550.19;;;4.21;98.24
69570;BME280;56781;42.292;23.146;2022-12-07T00:08:48;95530.25;;;4.09;98.22
69570;BME280;56781;42.292;23.146;2022-12-07T00:11:20;95552.09;;;4.36;97.89
69570;BME280;56781;42.292;23.146;2022-12-07T00:13:55;95547.28;;;4.23;97.48
69570;BME280;56781;42.292;23.146;2022-12-07T00:16:25;95568.53;;;4.33;97.78
69570;BME280;56781;42.292;23.146;2022-12-07T00:18:52;95592.44;;;4.49;97.78
69570;BME280;56781;42.292;23.146;2022-12-07T00:21:22;95546.22;;;4.19;97.53
69570;BME280;56781;42.292;23.146;2022-12-07T00:23:51;95542.78;;;4.24;97.42
69570;BME280;56781;42.292;23.146;2022-12-07T00:28:48;95559.84;;;4.43;97.31
69570;BME280;56781;42.292;23.146;2022-12-07T00:31:17;95559.81;;;4.38;97.63
69570;BME280;56781;42.292;23.146;2022-12-07T00:33:45;95551.53;;;4.24;97.50
69570;BME280;56781;42.292;23.146;2022-12-07T00:36:16;95608.41;;;4.59;98.10
69570;BME280;56781;42.292;23.146;2022-12-07T00:38:51;95608.88;;;4.46;98.46
69570;BME280;56781;42.292;23.146;2022-12-07T00:41:21;95611.97;;;4.27;99.28
69570;BME280;56781;42.292;23.146;2022-12-07T00:43:49;95525.22;;;4.02;99.14
69570;BME280;56781;42.292;23.146;2022-12-07T00:46:17;95526.81;;;4.03;99.01
69570;BME280;56781;42.292;23.146;2022-12-07T00:48:45;95527.91;;;4.17;98.62
69570;BME280;56781;42.292;23.146;2022-12-07T00:51:14;95586.09;;;4.50;98.81
69570;BME280;56781;42.292;23.146;2022-12-07T00:53:42;95589.75;;;4.38;99.27
69570;BME280;56781;42.292;23.146;2022-12-07T00:56:12;95544.03;;;4.06;98.83
69570;BME280;56781;42.292;23.146;2022-12-07T00:58:40;95591.88;;;4.41;98.63
69570;BME280;56781;42.292;23.146;2022-12-07T01:01:08;95535.84;;;4.07;99.14
69570;BME280;56781;42.292;23.146;2022-12-07T01:03:36;95586.38;;;4.58;98.26
69570;BME280;56781;42.292;23.146;2022-12-07T01:06:03;95514.41;;;4.14;98.43
69570;BME280;56781;42.292;23.146;2022-12-07T01:08:31;95527.66;;;4.19;98.46
69570;BME280;56781;42.292;23.146;2022-12-07T01:11:04;95566.47;;;4.46;98.61
69570;BME280;56781;42.292;23.146;2022-12-07T01:13:33;95553.72;;;4.37;99.10
69570;BME280;56781;42.292;23.146;2022-12-07T01:16:02;95466.09;;;3.91;98.41
69570;BME280;56781;42.292;23.146;2022-12-07T01:18:31;95581.91;;;4.69;99.65
69570;BME280;56781;42.292;23.146;2022-12-07T01:21:05;95512.84;;;4.28;98.85
69570;BME280;56781;42.292;23.146;2022-12-07T01:23:34;95519.81;;;4.50;98.62
69570;BME280;56781;42.292;23.146;2022-12-07T01:26:04;95532.34;;;4.64;97.94
69570;BME280;56781;42.292;23.146;2022-12-07T01:28:32;95565.47;;;4.77;98.46
69570;BME280;56781;42.292;23.146;2022-12-07T01:31:05;95515.28;;;4.45;98.52
69570;BME280;56781;42.292;23.146;2022-12-07T01:33:35;95517.72;;;4.52;98.35
69570;BME280;56781;42.292;23.146;2022-12-07T01:36:16;95584.56;;;4.74;98.43
69570;BME280;56781;42.292;23.146;2022-12-07T01:38:45;95585.88;;;4.66;99.06
69570;BME280;56781;42.292;23.146;2022-12-07T01:41:13;95574.78;;;4.70;98.93
69570;BME280;56781;42.292;23.146;2022-12-07T01:46:33;95553.28;;;4.76;98.83
69570;BME280;56781;42.292;23.146;2022-12-07T01:49:01;95488.50;;;4.36;98.58
69570;BME280;56781;42.292;23.146;2022-12-07T01:51:29;95538.69;;;4.74;98.60
69570;BME280;56781;42.292;23.146;2022-12-07T01:53:56;95506.84;;;4.58;98.26
69570;BME280;56781;42.292;23.146;2022-12-07T01:56:26;95556.50;;;4.94;98.34
69570;BME280;56781;42.292;23.146;2022-12-07T01:58:56;95533.91;;;4.65;98.18
69570;BME280;56781;42.292;23.146;2022-12-07T02:01:25;95480.53;;;4.21;98.28
69570;BME280;56781;42.292;23.146;2022-12-07T02:03:53;95514.00;;;4.53;98.04
69570;BME280;56781;42.292;23.146;2022-12-07T02:06:22;95475.53;;;4.40;97.85
69570;BME280;56781;42.292;23.146;2022-12-07T02:08:51;95495.44;;;4.53;97.80
69570;BME280;56781;42.292;23.146;2022-12-07T02:11:19;95507.13;;;4.62;98.00
69570;BME280;56781;42.292;23.146;2022-12-07T02:13:47;95479.53;;;4.58;97.65
69570;BME280;56781;42.292;23.146;2022-12-07T02:16:31;95485.94;;;4.62;97.19
69570;BME280;56781;42.292;23.146;2022-12-07T02:25:04;95472.59;;;4.26;97.75
69570;BME280;56781;42.292;23.146;2022-12-07T02:27:46;95494.38;;;4.49;97.92
69570;BME280;56781;42.292;23.146;2022-12-07T02:30:20;95498.88;;;4.43;98.29
69570;BME280;56781;42.292;23.146;2022-12-07T02:33:04;95507.06;;;4.36;99.44
69570;BME280;56781;42.292;23.146;2022-12-07T02:35:45;95477.63;;;4.33;99.20
69570;BME280;56781;42.292;23.146;2022-12-07T02:41:00;95468.13;;;4.47;98.64
69570;BME280;56781;42.292;23.146;2022-12-07T02:43:36;95490.66;;;4.55;98.62
69570;BME280;56781;42.292;23.146;2022-12-07T02:46:14;95493.06;;;4.56;99.06
69570;BME280;56781;42.292;23.146;2022-12-07T02:48:43;95474.75;;;4.44;98.17
69570;BME280;56781;42.292;23.146;2022-12-07T02:51:12;95524.69;;;4.83;98.33
69570;BME280;56781;42.292;23.146;2022-12-07T02:53:42;95484.84;;;4.58;98.27
69570;BME280;56781;42.292;23.146;2022-12-07T02:56:35;95533.16;;;4.85;98.21
69570;BME280;56781;42.292;23.146;2022-12-07T03:12:31;95528.88;;;4.69;98.64
69570;BME280;56781;42.292;23.146;2022-12-07T03:15:06;95483.75;;;4.43;98.54
69570;BME280;56781;42.292;23.146;2022-12-07T03:17:40;95525.19;;;4.80;98.39
69570;BME280;56781;42.292;23.146;2022-12-07T03:20:09;95487.19;;;4.39;98.89
69570;BME280;56781;42.292;23.146;2022-12-07T03:22:39;95487.25;;;4.59;98.62
69570;BME280;56781;42.292;23.146;2022-12-07T03:25:10;95536.88;;;4.89;97.80
69570;BME280;56781;42.292;23.146;2022-12-07T03:27:50;95494.94;;;4.71;97.63
69570;BME280;56781;42.292;23.146;2022-12-07T03:30:22;95484.31;;;4.61;97.79
69570;BME280;56781;42.292;23.146;2022-12-07T03:35:23;95496.53;;;4.72;98.13
69570;BME280;56781;42.292;23.146;2022-12-07T03:37:59;95481.16;;;4.69;97.80
69570;BME280;56781;42.292;23.146;2022-12-07T03:43:21;95513.53;;;4.86;97.72
69570;BME280;56781;42.292;23.146;2022-12-07T03:51:56;95513.72;;;4.49;98.31
69570;BME280;56781;42.292;23.146;2022-12-07T03:57:24;95490.84;;;4.22;98.58
69570;BME280;56781;42.292;23.146;2022-12-07T03:59:54;95471.47;;;4.12;98.98
69570;BME280;56781;42.292;23.146;2022-12-07T04:02:22;95463.75;;;4.00;98.85
69570;BME280;56781;42.292;23.146;2022-12-07T04:04:50;95455.56;;;4.07;98.90
69570;BME280;56781;42.292;23.146;2022-12-07T04:07:17;95442.31;;;4.07;98.93
69570;BME280;56781;42.292;23.146;2022-12-07T04:09:45;95457.53;;;3.69;99.31
69570;BME280;56781;42.292;23.146;2022-12-07T04:12:12;95440.47;;;3.49;100.00
69570;BME280;56781;42.292;23.146;2022-12-07T04:14:39;95476.88;;;3.74;100.00
69570;BME280;56781;42.292;23.146;2022-12-07T04:17:06;95478.75;;;3.79;99.32
69570;BME280;56781;42.292;23.146;2022-12-07T04:19:34;95452.94;;;3.54;99.43
69570;BME280;56781;42.292;23.146;2022-12-07T04:22:03;95466.47;;;3.58;99.36
69570;BME280;56781;42.292;23.146;2022-12-07T04:24:30;95477.56;;;3.54;100.00
69570;BME280;56781;42.292;23.146;2022-12-07T04:26:57;95465.47;;;3.64;100.00
69570;BME280;56781;42.292;23.146;2022-12-07T04:29:25;95452.19;;;3.59;100.00
69570;BME280;56781;42.292;23.146;2022-12-07T04:31:52;95472.84;;;3.62;100.00
69570;BME280;56781;42.292;23.146;2022-12-07T04:34:20;95463.91;;;2.93;100.00
69570;BME280;56781;42.292;23.146;2022-12-07T04:36:48;95464.06;;;3.14;100.00
69570;BME280;56781;42.292;23.146;2022-12-07T04:39:29;95456.22;;;3.24;100.00
69570;BME280;56781;42.292;23.146;2022-12-07T04:41:58;95520.00;;;3.70;99.12
69570;BME280;56781;42.292;23.146;2022-12-07T04:44:26;95470.75;;;3.21;98.68
69570;BME280;56781;42.292;23.146;2022-12-07T04:46:54;95477.03;;;3.10;100.00
69570;BME280;56781;42.292;23.146;2022-12-07T04:49:21;95468.81;;;3.11;100.00
69570;BME280;56781;42.292;23.146;2022-12-07T04:51:48;95493.09;;;3.41;100.00
69570;BME280;56781;42.292;23.146;2022-12-07T04:54:16;95518.19;;;3.33;100.00
69570;BME280;56781;42.292;23.146;2022-12-07T04:56:44;95481.13;;;2.96;100.00
69570;BME280;56781;42.292;23.146;2022-12-07T04:59:12;95478.31;;;3.07;100.00
69570;BME280;56781;42.292;23.146;2022-12-07T05:01:39;95492.19;;;3.25;100.00
69570;BME280;56781;42.292;23.146;2022-12-07T05:04:07;95477.34;;;3.19;100.00
69570;BME280;56781;42.292;23.146;2022-12-07T05:06:34;95468.09;;;3.21;100.00
69570;BME280;56781;42.292;23.146;2022-12-07T05:09:02;95480.56;;;3.26;100.00
69570;BME280;56781;42.292;23.146;2022-12-07T05:11:29;95534.78;;;3.66;100.00
69570;BME280;56781;42.292;23.146;2022-12-07T05:14:17;95470.38;;;3.07;100.00
69570;BME280;56781;42.292;23.146;2022-12-07T05:16:47;95469.31;;;3.08;100.00
69570;BME280;56781;42.292;23.146;2022-12-07T05:19:16;95490.88;;;3.27;100.00
69570;BME280;56781;42.292;23.146;2022-12-07T05:21:43;95494.75;;;3.52;100.00
69570;BME280;56781;42.292;23.146;2022-12-07T05:24:12;95497.09;;;3.43;100.00
69570;BME280;56781;42.292;23.146;2022-12-07T05:26:40;95501.28;;;3.39;99.61
69570;BME280;56781;42.292;23.146;2022-12-07T05:29:14;95526.78;;;3.55;100.00
69570;BME280;56781;42.292;23.146;2022-12-07T05:31:42;95524.47;;;3.64;100.00
69570;BME280;56781;42.292;23.146;2022-12-07T05:34:09;95491.78;;;3.43;100.00
69570;BME280;56781;42.292;23.146;2022-12-07T05:36:36;95478.53;;;3.38;100.00
69570;BME280;56781;42.292;23.146;2022-12-07T05:39:03;95492.84;;;3.47;100.00
69570;BME280;56781;42.292;23.146;2022-12-07T05:41:30;95484.47;;;3.61;99.94
69570;BME280;56781;42.292;23.146;2022-12-07T05:44:20;95471.72;;;3.52;99.83
69570;BME280;56781;42.292;23.146;2022-12-07T05:46:47;95507.31;;;3.77;99.43
69570;BME280;56781;42.292;23.146;2022-12-07T05:49:14;95494.03;;;3.62;99.49
69570;BME280;56781;42.292;23.146;2022-12-07T05:51:41;95483.94;;;3.59;100.00
69570;BME280;56781;42.292;23.146;2022-12-07T05:54:08;95505.22;;;3.79;100.00
69570;BME280;56781;42.292;23.146;2022-12-07T05:56:39;95512.13;;;3.85;100.00
69570;BME280;56781;42.292;23.146;2022-12-07T05:59:06;95462.97;;;3.47;100.00
69570;BME280;56781;42.292;23.146;2022-12-07T06:01:51;95439.31;;;3.30;100.00
69570;BME280;56781;42.292;23.146;2022-12-07T06:04:18;95459.53;;;3.46;100.00
69570;BME280;56781;42.292;23.146;2022-12-07T06:06:46;95469.09;;;3.58;99.47
69570;BME280;56781;42.292;23.146;2022-12-07T06:09:13;95523.34;;;4.03;98.66
69570;BME280;56781;42.292;23.146;2022-12-07T06:11:40;95461.25;;;3.73;98.03
69570;BME280;56781;42.292;23.146;2022-12-07T06:14:26;95506.91;;;4.00;97.55
69570;BME280;56781;42.292;23.146;2022-12-07T06:16:53;95487.19;;;3.71;97.97
69570;BME280;56781;42.292;23.146;2022-12-07T06:19:20;95495.19;;;3.81;98.01
69570;BME280;56781;42.292;23.146;2022-12-07T06:21:47;95425.63;;;3.38;97.88
69570;BME280;56781;42.292;23.146;2022-12-07T06:24:15;95472.38;;;3.70;97.90
69570;BME280;56781;42.292;23.146;2022-12-07T06:26:43;95468.03;;;3.53;98.54
69570;BME280;56781;42.292;23.146;2022-12-07T06:29:11;95472.16;;;3.39;99.68
69570;BME280;56781;42.292;23.146;2022-12-07T06:31:39;95534.94;;;3.86;99.85
69570;BME280;56781;42.292;23.146;2022-12-07T06:34:10;95463.28;;;3.50;99.74
69570;BME280;56781;42.292;23.146;2022-12-07T06:36:38;95515.63;;;3.96;99.07
69570;BME280;56781;42.292;23.146;2022-12-07T06:39:06;95475.53;;;3.67;99.08
69570;BME280;56781;42.292;23.146;2022-12-07T06:41:36;95477.69;;;3.75;99.09
69570;BME280;56781;42.292;23.146;2022-12-07T06:44:07;95485.34;;;3.76;99.15
69570;BME280;56781;42.292;23.146;2022-12-07T06:46:34;95480.88;;;3.82;99.50
69570;BME280;56781;42.292;23.146;2022-12-07T06:49:05;95530.03;;;4.15;99.92
69570;BME280;56781;42.292;23.146;2022-12-07T06:51:33;95481.53;;;4.05;99.02
69570;BME280;56781;42.292;23.146;2022-12-07T06:54:05;95532.56;;;4.58;98.24
69570;BME280;56781;42.292;23.146;2022-12-07T06:56:33;95539.00;;;4.93;97.84
69570;BME280;56781;42.292;23.146;2022-12-07T06:59:00;95485.38;;;4.55;96.60
69570;BME280;56781;42.292;23.146;2022-12-07T07:01:27;95527.09;;;5.26;95.18
69570;BME280;56781;42.292;23.146;2022-12-07T07:03:54;95482.78;;;5.01;94.31
69570;BME280;56781;42.292;23.146;2022-12-07T07:06:22;95536.38;;;5.59;94.39
69570;BME280;56781;42.292;23.146;2022-12-07T07:08:49;95492.84;;;5.34;94.63
69570;BME280;56781;42.292;23.146;2022-12-07T07:11:17;95528.38;;;5.69;94.51
69570;BME280;56781;42.292;23.146;2022-12-07T07:13:45;95499.16;;;5.64;94.66
69570;BME280;56781;42.292;23.146;2022-12-07T07:16:12;95502.34;;;5.82;95.21
69570;BME280;56781;42.292;23.146;2022-12-07T07:18:39;95473.69;;;5.58;95.29
69570;BME280;56781;42.292;23.146;2022-12-07T07:21:06;95487.88;;;6.18;94.55
69570;BME280;56781;42.292;23.146;2022-12-07T07:23:33;95482.66;;;6.53;92.13
69570;BME280;56781;42.292;23.146;2022-12-07T07:26:00;95482.50;;;6.78;91.78
69570;BME280;56781;42.292;23.146;2022-12-07T07:28:27;95492.69;;;7.05;90.49
69570;BME280;56781;42.292;23.146;2022-12-07T07:30:54;95485.06;;;7.28;89.05
69570;BME280;56781;42.292;23.146;2022-12-07T07:33:21;95485.00;;;7.62;87.50
69570;BME280;56781;42.292;23.146;2022-12-07T07:35:48;95486.91;;;8.34;85.89
69570;BME280;56781;42.292;23.146;2022-12-07T07:38:15;95518.88;;;9.33;81.04
69570;BME280;56781;42.292;23.146;2022-12-07T07:40:42;95513.28;;;9.16;79.28
69570;BME280;56781;42.292;23.146;2022-12-07T07:43:09;95478.78;;;9.01;78.67
69570;BME280;56781;42.292;23.146;2022-12-07T07:45:36;95510.75;;;9.06;79.34
69570;BME280;56781;42.292;23.146;2022-12-07T07:48:03;95510.56;;;8.83;80.08
69570;BME280;56781;42.292;23.146;2022-12-07T07:50:30;95485.81;;;8.59;80.18
69570;BME280;56781;42.292;23.146;2022-12-07T07:52:58;95515.72;;;8.56;81.56
69570;BME280;56781;42.292;23.146;2022-12-07T07:55:25;95489.97;;;8.46;81.69
69570;BME280;56781;42.292;23.146;2022-12-07T07:57:52;95494.22;;;8.23;83.58
69570;BME280;56781;42.292;23.146;2022-12-07T08:00:21;95517.44;;;8.47;83.64
69570;BME280;56781;42.292;23.146;2022-12-07T08:02:48;95520.13;;;8.84;82.00
69570;BME280;56781;42.292;23.146;2022-12-07T08:05:15;95492.38;;;8.85;80.28
69570;BME280;56781;42.292;23.146;2022-12-07T08:07:43;95467.69;;;9.13;79.14
69570;BME280;56781;42.292;23.146;2022-12-07T08:10:12;95484.63;;;9.68;77.98
69570;BME280;56781;42.292;23.146;2022-12-07T08:12:41;95487.63;;;9.81;76.83
69570;BME280;56781;42.292;23.146;2022-12-07T08:15:28;95463.97;;;10.02;75.33
69570;BME280;56781;42.292;23.146;2022-12-07T08:17:55;95498.09;;;11.10;72.68
69570;BME280;56781;42.292;23.146;2022-12-07T08:20:22;95479.88;;;11.66;69.18
69570;BME280;56781;42.292;23.146;2022-12-07T08:22:49;95465.75;;;12.14;66.63
69570;BME280;56781;42.292;23.146;2022-12-07T08:25:17;95517.44;;;12.37;65.08
69570;BME280;56781;42.292;23.146;2022-12-07T08:27:44;95481.41;;;13.13;62.89
69570;BME280;56781;42.292;23.146;2022-12-07T08:30:11;95478.28;;;13.92;60.92
69570;BME280;56781;42.292;23.146;2022-12-07T08:32:38;95505.59;;;13.04;61.50
69570;BME280;56781;42.292;23.146;2022-12-07T08:35:06;95482.19;;;13.13;62.36
69570;BME280;56781;42.292;23.146;2022-12-07T08:37:33;95453.34;;;12.35;63.71
69570;BME280;56781;42.292;23.146;2022-12-07T08:40:00;95464.09;;;11.64;66.68
69570;BME280;56781;42.292;23.146;2022-12-07T08:42:27;95444.91;;;10.95;69.49
69570;BME280;56781;42.292;23.146;2022-12-07T08:44:56;95408.00;;;10.05;71.50
69570;BME280;56781;42.292;23.146;2022-12-07T08:47:24;95491.59;;;10.25;73.23
69570;BME280;56781;42.292;23.146;2022-12-07T08:49:52;95457.44;;;9.94;75.53
69570;BME280;56781;42.292;23.146;2022-12-07T08:52:21;95454.03;;;9.61;74.76
69570;BME280;56781;42.292;23.146;2022-12-07T08:54:48;95444.50;;;9.54;75.38
69570;BME280;56781;42.292;23.146;2022-12-07T08:57:16;95489.09;;;9.87;75.62
69570;BME280;56781;42.292;23.146;2022-12-07T08:59:43;95442.00;;;9.44;76.30
69570;BME280;56781;42.292;23.146;2022-12-07T09:02:10;95443.91;;;9.58;76.42
69570;BME280;56781;42.292;23.146;2022-12-07T09:04:37;95479.53;;;10.13;73.87
69570;BME280;56781;42.292;23.146;2022-12-07T09:07:04;95415.72;;;9.93;72.96
69570;BME280;56781;42.292;23.146;2022-12-07T09:09:32;95420.28;;;10.06;73.04
69570;BME280;56781;42.292;23.146;2022-12-07T09:12:00;95468.44;;;10.48;73.82
69570;BME280;56781;42.292;23.146;2022-12-07T09:14:27;95358.47;;;10.08;71.83
69570;BME280;56781;42.292;23.146;2022-12-07T09:16:54;95413.34;;;10.69;71.83
69570;BME280;56781;42.292;23.146;2022-12-07T09:19:21;95423.31;;;10.77;71.64
69570;BME280;56781;42.292;23.146;2022-12-07T09:21:51;95349.75;;;10.16;71.91
69570;BME280;56781;42.292;23.146;2022-12-07T09:24:18;95453.28;;;11.02;72.64
69570;BME280;56781;42.292;23.146;2022-12-07T09:26:48;95447.41;;;11.14;72.08
69570;BME280;56781;42.292;23.146;2022-12-07T09:29:15;95449.94;;;11.41;71.30
69570;BME280;56781;42.292;23.146;2022-12-07T09:31:42;95430.56;;;11.44;69.88
69570;BME280;56781;42.292;23.146;2022-12-07T09:34:10;95435.44;;;11.73;70.58
69570;BME280;56781;42.292;23.146;2022-12-07T09:36:37;95407.31;;;11.62;68.88
69570;BME280;56781;42.292;23.146;2022-12-07T09:39:05;95412.16;;;11.51;67.93
69570;BME280;56781;42.292;23.146;2022-12-07T09:41:32;95437.91;;;11.92;69.60
69570;BME280;56781;42.292;23.146;2022-12-07T09:44:18;95393.19;;;11.79;67.95
69570;BME280;56781;42.292;23.146;2022-12-07T09:46:47;95386.38;;;11.73;67.38
69570;BME280;56781;42.292;23.146;2022-12-07T09:49:18;95384.06;;;11.49;67.91
69570;BME280;56781;42.292;23.146;2022-12-07T09:51:46;95423.91;;;12.13;66.81
69570;BME280;56781;42.292;23.146;2022-12-07T09:54:16;95412.25;;;12.26;67.34
69570;BME280;56781;42.292;23.146;2022-12-07T09:56:43;95397.78;;;12.45;66.90
69570;BME280;56781;42.292;23.146;2022-12-07T09:59:17;95350.72;;;12.38;65.35
69570;BME280;56781;42.292;23.146;2022-12-07T10:01:48;95356.66;;;12.01;65.66
69570;BME280;56781;42.292;23.146;2022-12-07T10:04:26;95332.66;;;11.95;65.37
69570;BME280;56781;42.292;23.146;2022-12-07T10:06:54;95362.66;;;11.97;66.30
69570;BME280;56781;42.292;23.146;2022-12-07T10:09:24;95382.94;;;12.30;65.80
69570;BME280;56781;42.292;23.146;2022-12-07T10:12:07;95347.69;;;12.14;65.42
69570;BME280;56781;42.292;23.146;2022-12-07T10:14:39;95381.81;;;12.31;64.63
69570;BME280;56781;42.292;23.146;2022-12-07T10:17:37;95376.94;;;12.59;63.80
69570;BME280;56781;42.292;23.146;2022-12-07T10:20:26;95375.50;;;12.88;63.92
69570;BME280;56781;42.292;23.146;2022-12-07T10:23:05;95345.28;;;13.08;63.00
69570;BME280;56781;42.292;23.146;2022-12-07T10:25:35;95369.75;;;13.41;62.29
69570;BME280;56781;42.292;23.146;2022-12-07T10:28:15;95368.47;;;13.21;60.81
69570;BME280;56781;42.292;23.146;2022-12-07T10:31:00;95329.78;;;13.05;61.61
69570;BME280;56781;42.292;23.146;2022-12-07T10:33:35;95326.97;;;13.01;61.20
69570;BME280;56781;42.292;23.146;2022-12-07T10:38:59;95351.19;;;13.57;60.46
69570;BME280;56781;42.292;23.146;2022-12-07T10:41:27;95335.88;;;13.40;60.14
69570;BME280;56781;42.292;23.146;2022-12-07T10:43:56;95268.44;;;12.60;59.93
69570;BME280;56781;42.292;23.146;2022-12-07T10:49:26;95344.28;;;13.21;62.03
69570;BME280;56781;42.292;23.146;2022-12-07T10:55:11;95336.75;;;13.62;60.83
69570;BME280;56781;42.292;23.146;2022-12-07T10:57:49;95280.22;;;13.70;59.83
69570;BME280;56781;42.292;23.146;2022-12-07T11:00:24;95329.09;;;14.02;58.04
69570;BME280;56781;42.292;23.146;2022-12-07T11:11:17;95280.59;;;13.60;56.38
69570;BME280;56781;42.292;23.146;2022-12-07T11:13:51;95302.91;;;13.61;56.35
69570;BME280;56781;42.292;23.146;2022-12-07T11:19:31;95296.09;;;13.63;56.55
69570;BME280;56781;42.292;23.146;2022-12-07T11:22:17;95292.03;;;13.78;55.69
69570;BME280;56781;42.292;23.146;2022-12-07T11:25:02;95271.88;;;13.63;56.43
69570;BME280;56781;42.292;23.146;2022-12-07T11:27:41;95267.81;;;13.78;55.38
69570;BME280;56781;42.292;23.146;2022-12-07T11:30:14;95253.72;;;13.60;54.26
69570;BME280;56781;42.292;23.146;2022-12-07T11:38:23;95260.88;;;13.47;54.77
69570;BME280;56781;42.292;23.146;2022-12-07T11:41:00;95194.34;;;13.06;54.30
69570;BME280;56781;42.292;23.146;2022-12-07T11:44:02;95229.03;;;13.28;55.65
69570;BME280;56781;42.292;23.146;2022-12-07T11:52:53;95240.03;;;12.97;56.79
69570;BME280;56781;42.292;23.146;2022-12-07T11:55:33;95175.63;;;12.24;57.39
69570;BME280;56781;42.292;23.146;2022-12-07T11:58:23;95206.56;;;12.30;58.12
69570;BME280;56781;42.292;23.146;2022-12-07T12:01:05;95218.06;;;12.39;58.57
69570;BME280;56781;42.292;23.146;2022-12-07T12:03:38;95235.13;;;12.44;58.39
69570;BME280;56781;42.292;23.146;2022-12-07T12:06:07;95241.28;;;12.44;58.63
69570;BME280;56781;42.292;23.146;2022-12-07T12:08:40;95198.69;;;12.16;58.94
69570;BME280;56781;42.292;23.146;2022-12-07T12:14:27;95235.88;;;12.53;59.16
69570;BME280;56781;42.292;23.146;2022-12-07T12:17:36;95228.47;;;12.50;59.17
69570;BME280;56781;42.292;23.146;2022-12-07T12:25:45;95202.16;;;11.91;60.93
69570;BME280;56781;42.292;23.146;2022-12-07T12:33:43;95190.00;;;11.93;60.25
69570;BME280;56781;42.292;23.146;2022-12-07T12:36:26;95207.03;;;12.15;60.64
69570;BME280;56781;42.292;23.146;2022-12-07T12:52:00;95204.25;;;13.14;55.50
69570;BME280;56781;42.292;23.146;2022-12-07T12:54:34;95184.97;;;13.12;54.38
69570;BME280;56781;42.292;23.146;2022-12-07T12:57:22;95181.25;;;13.25;53.46
69570;BME280;56781;42.292;23.146;2022-12-07T13:02:23;95122.94;;;12.96;53.38
69570;BME280;56781;42.292;23.146;2022-12-07T13:04:58;95190.69;;;13.40;54.22
69570;BME280;56781;42.292;23.146;2022-12-07T13:13:28;95126.88;;;12.60;55.05
69570;BME280;56781;42.292;23.146;2022-12-07T13:15:54;95170.84;;;12.85;56.41
69570;BME280;56781;42.292;23.146;2022-12-07T13:23:38;95177.88;;;12.69;57.05
69570;BME280;56781;42.292;23.146;2022-12-07T13:31:45;95180.53;;;12.22;60.27
69570;BME280;56781;42.292;23.146;2022-12-07T13:34:37;95162.69;;;11.91;60.63
69570;BME280;56781;42.292;23.146;2022-12-07T13:37:13;95157.19;;;11.79;60.70
69570;BME280;56781;42.292;23.146;2022-12-07T13:39:51;95185.59;;;11.97;61.34
69570;BME280;56781;42.292;23.146;2022-12-07T13:42:26;95129.09;;;11.50;61.87
69570;BME280;56781;42.292;23.146;2022-12-07T13:44:54;95159.69;;;11.67;62.13
69570;BME280;56781;42.292;23.146;2022-12-07T13:47:40;95133.81;;;11.36;63.02
69570;BME280;56781;42.292;23.146;2022-12-07T13:50:26;95187.94;;;11.73;64.14
69570;BME280;56781;42.292;23.146;2022-12-07T13:52:58;95193.47;;;11.68;64.44
69570;BME280;56781;42.292;23.146;2022-12-07T13:55:27;95189.34;;;11.62;65.32
69570;BME280;56781;42.292;23.146;2022-12-07T13:57:55;95152.72;;;11.31;64.73
69570;BME280;56781;42.292;23.146;2022-12-07T14:00:25;95197.22;;;11.67;65.08
69570;BME280;56781;42.292;23.146;2022-12-07T14:03:04;95148.16;;;11.31;65.44
69570;BME280;56781;42.292;23.146;2022-12-07T14:05:43;95141.69;;;11.24;65.31
69570;BME280;56781;42.292;23.146;2022-12-07T14:10:55;95170.22;;;11.28;66.08
69570;BME280;56781;42.292;23.146;2022-12-07T14:13:55;95195.66;;;11.48;65.17
69570;BME280;56781;42.292;23.146;2022-12-07T14:16:31;95168.59;;;11.10;65.72
69570;BME280;56781;42.292;23.146;2022-12-07T14:19:01;95161.16;;;10.98;66.07
69570;BME280;56781;42.292;23.146;2022-12-07T14:21:29;95193.66;;;11.05;66.41
69570;BME280;56781;42.292;23.146;2022-12-07T14:24:20;95159.06;;;10.78;67.02
69570;BME280;56781;42.292;23.146;2022-12-07T14:26:49;95162.34;;;10.75;67.08
69570;BME280;56781;42.292;23.146;2022-12-07T14:31:57;95125.06;;;10.47;68.13
69570;BME280;56781;42.292;23.146;2022-12-07T14:34:25;95202.72;;;10.87;68.82
69570;BME280;56781;42.292;23.146;2022-12-07T14:36:52;95212.50;;;10.92;68.92
69570;BME280;56781;42.292;23.146;2022-12-07T14:39:20;95162.06;;;10.45;69.06
69570;BME280;56781;42.292;23.146;2022-12-07T14:41:47;95169.47;;;10.48;69.54
69570;BME280;56781;42.292;23.146;2022-12-07T14:44:19;95211.59;;;10.65;70.57
69570;BME280;56781;42.292;23.146;2022-12-07T14:46:51;95168.69;;;10.25;70.74
69570;BME280;56781;42.292;23.146;2022-12-07T14:49:39;95136.19;;;10.09;71.02
69570;BME280;56781;42.292;23.146;2022-12-07T14:52:13;95161.41;;;10.17;71.33
69570;BME280;56781;42.292;23.146;2022-12-07T14:55:01;95169.25;;;10.13;71.97
69570;BME280;56781;42.292;23.146;2022-12-07T14:57:29;95223.97;;;10.52;71.55
69570;BME280;56781;42.292;23.146;2022-12-07T14:59:56;95221.84;;;10.40;72.21
69570;BME280;56781;42.292;23.146;2022-12-07T15:02:23;95174.84;;;10.03;72.35
69570;BME280;56781;42.292;23.146;2022-12-07T15:04:50;95225.88;;;10.29;72.50
69570;BME280;56781;42.292;23.146;2022-12-07T15:07:20;95206.69;;;10.13;72.52
69570;BME280;56781;42.292;23.146;2022-12-07T15:09:48;95237.94;;;10.27;73.08
69570;BME280;56781;42.292;23.146;2022-12-07T15:12:16;95235.38;;;10.21;73.41
69570;BME280;56781;42.292;23.146;2022-12-07T15:14:43;95236.22;;;10.08;73.66
69570;BME280;56781;42.292;23.146;2022-12-07T15:17:11;95234.16;;;10.05;73.97
69570;BME280;56781;42.292;23.146;2022-12-07T15:19:55;95229.53;;;9.97;74.72
69570;BME280;56781;42.292;23.146;2022-12-07T15:22:22;95243.63;;;9.89;74.76